sensor_id;sensor_type;location;lat;lon;timestamp;temperature;humidity
21031;DHT22;61072;47.808;7.636;2022-07-18T00:00:12;20.60;99.90
21031;DHT22;61072;47.808;7.636;2022-07-18T00:02:39;20.70;99.90
21031;DHT22;61072;47.808;7.636;2022-07-18T00:05:06;20.60;99.90
21031;DHT22;61072;47.808;7.636;2022-07-18T00:07:33;20.60;99.90
21031;DHT22;61072;47.808;7.636;2022-07-18T00:10:00;20.60;99.90
21031;DHT22;61072;47.808;7.636;2022-07-18T00:12:27;20.50;99.90
21031;DHT22;61072;47.808;7.636;2022-07-18T00:14:54;20.50;99.90
21031;DHT22;61072;47.808;7.636;2022-07-18T00:17:20;20.50;99.90
21031;DHT22;61072;47.808;7.636;2022-07-18T00:19:47;20.40;99.90
21031;DHT22;61072;47.808;7.636;2022-07-18T00:22:14;20.40;99.90
21031;DHT22;61072;47.808;7.636;2022-07-18T00:24:41;20.50;99.90
21031;DHT22;61072;47.808;7.636;2022-07-18T00:27:08;20.50;99.90
21031;DHT22;61072;47.808;7.636;2022-07-18T00:29:35;20.50;99.90
21031;DHT22;61072;47.808;7.636;2022-07-18T00:32:07;20.30;99.90
21031;DHT22;61072;47.808;7.636;2022-07-18T00:34:35;20.30;99.90
21031;DHT22;61072;47.808;7.636;2022-07-18T00:37:02;20.30;99.90
21031;DHT22;61072;47.808;7.636;2022-07-18T00:39:29;20.10;99.90
21031;DHT22;61072;47.808;7.636;2022-07-18T00:41:55;20.10;99.90
21031;DHT22;61072;47.808;7.636;2022-07-18T00:44:24;20.10;99.90
21031;DHT22;61072;47.808;7.636;2022-07-18T00:46:52;20.10;99.90
21031;DHT22;61072;47.808;7.636;2022-07-18T00:49:20;19.90;99.90
21031;DHT22;61072;47.808;7.636;2022-07-18T00:51:47;19.90;99.90
21031;DHT22;61072;47.808;7.636;2022-07-18T00:54:14;19.90;99.90
21031;DHT22;61072;47.808;7.636;2022-07-18T00:56:42;19.90;99.90
21031;DHT22;61072;47.808;7.636;2022-07-18T00:59:10;19.80;99.90
21031;DHT22;61072;47.808;7.636;2022-07-18T01:01:38;19.90;99.90
21031;DHT22;61072;47.808;7.636;2022-07-18T01:04:18;19.80;99.90
21031;DHT22;61072;47.808;7.636;2022-07-18T01:06:46;19.80;99.90
21031;DHT22;61072;47.808;7.636;2022-07-18T01:09:14;19.70;99.90
21031;DHT22;61072;47.808;7.636;2022-07-18T01:11:41;19.70;99.90
21031;DHT22;61072;47.808;7.636;2022-07-18T01:14:10;19.70;99.90
21031;DHT22;61072;47.808;7.636;2022-07-18T01:16:36;19.70;99.90
21031;DHT22;61072;47.808;7.636;2022-07-18T01:19:04;19.70;99.90
21031;DHT22;61072;47.808;7.636;2022-07-18T01:21:31;19.80;99.90
21031;DHT22;61072;47.808;7.636;2022-07-18T01:23:58;19.80;99.90
21031;DHT22;61072;47.808;7.636;2022-07-18T01:26:25;19.70;99.90
21031;DHT22;61072;47.808;7.636;2022-07-18T01:28:52;19.70;99.90
21031;DHT22;61072;47.808;7.636;2022-07-18T01:31:18;19.60;99.90
21031;DHT22;61072;47.808;7.636;2022-07-18T01:33:45;19.60;99.90
21031;DHT22;61072;47.808;7.636;2022-07-18T01:36:12;19.60;99.90
21031;DHT22;61072;47.808;7.636;2022-07-18T01:38:38;19.60;99.90
21031;DHT22;61072;47.808;7.636;2022-07-18T01:41:05;19.60;99.90
21031;DHT22;61072;47.808;7.636;2022-07-18T01:43:32;19.50;99.90
21031;DHT22;61072;47.808;7.636;2022-07-18T01:46:00;19.40;99.90
21031;DHT22;61072;47.808;7.636;2022-07-18T01:48:28;19.40;99.90
21031;DHT22;61072;47.808;7.636;2022-07-18T01:50:54;19.40;99.90
21031;DHT22;61072;47.808;7.636;2022-07-18T01:53:21;19.40;99.90
21031;DHT22;61072;47.808;7.636;2022-07-18T01:55:48;19.30;99.90
21031;DHT22;61072;47.808;7.636;2022-07-18T01:58:15;19.30;99.90
21031;DHT22;61072;47.808;7.636;2022-07-18T02:00:41;19.30;99.90
21031;DHT22;61072;47.808;7.636;2022-07-18T02:03:08;19.20;99.90
21031;DHT22;61072;47.808;7.636;2022-07-18T02:05:35;19.20;99.90
21031;DHT22;61072;47.808;7.636;2022-07-18T02:08:02;19.20;99.90
21031;DHT22;61072;47.808;7.636;2022-07-18T02:10:29;19.20;99.90
21031;DHT22;61072;47.808;7.636;2022-07-18T02:12:55;19.10;99.90
21031;DHT22;61072;47.808;7.636;2022-07-18T02:15:22;19.10;99.90
21031;DHT22;61072;47.808;7.636;2022-07-18T02:17:49;19.20;99.90
21031;DHT22;61072;47.808;7.636;2022-07-18T02:20:16;19.20;99.90
21031;DHT22;61072;47.808;7.636;2022-07-18T02:22:43;19.10;99.90
21031;DHT22;61072;47.808;7.636;2022-07-18T02:25:11;19.00;99.90
21031;DHT22;61072;47.808;7.636;2022-07-18T02:27:37;18.90;99.90
21031;DHT22;61072;47.808;7.636;2022-07-18T02:30:06;19.00;99.90
21031;DHT22;61072;47.808;7.636;2022-07-18T02:32:34;19.00;99.90
21031;DHT22;61072;47.808;7.636;2022-07-18T02:35:05;19.00;99.90
21031;DHT22;61072;47.808;7.636;2022-07-18T02:37:33;19.00;99.90
21031;DHT22;61072;47.808;7.636;2022-07-18T02:40:00;19.00;99.90
21031;DHT22;61072;47.808;7.636;2022-07-18T02:42:27;19.00;99.90
21031;DHT22;61072;47.808;7.636;2022-07-18T02:44:54;18.90;99.90
21031;DHT22;61072;47.808;7.636;2022-07-18T02:47:21;18.90;99.90
21031;DHT22;61072;47.808;7.636;2022-07-18T02:49:47;18.90;99.90
21031;DHT22;61072;47.808;7.636;2022-07-18T02:52:14;18.90;99.90
21031;DHT22;61072;47.808;7.636;2022-07-18T02:54:41;18.90;99.90
21031;DHT22;61072;47.808;7.636;2022-07-18T02:57:08;18.80;99.90
21031;DHT22;61072;47.808;7.636;2022-07-18T02:59:34;18.80;99.90
21031;DHT22;61072;47.808;7.636;2022-07-18T03:02:02;18.80;99.90
21031;DHT22;61072;47.808;7.636;2022-07-18T03:04:29;18.60;99.90
21031;DHT22;61072;47.808;7.636;2022-07-18T03:06:56;18.50;99.90
21031;DHT22;61072;47.808;7.636;2022-07-18T03:09:23;18.50;99.90
21031;DHT22;61072;47.808;7.636;2022-07-18T03:11:56;18.50;99.90
21031;DHT22;61072;47.808;7.636;2022-07-18T03:14:24;18.50;99.90
21031;DHT22;61072;47.808;7.636;2022-07-18T03:16:50;18.50;99.90
21031;DHT22;61072;47.808;7.636;2022-07-18T03:19:17;18.40;99.90
21031;DHT22;61072;47.808;7.636;2022-07-18T03:21:44;18.40;99.90
21031;DHT22;61072;47.808;7.636;2022-07-18T03:24:11;18.40;99.90
21031;DHT22;61072;47.808;7.636;2022-07-18T03:26:42;18.40;99.90
21031;DHT22;61072;47.808;7.636;2022-07-18T03:29:10;18.40;99.90
21031;DHT22;61072;47.808;7.636;2022-07-18T03:31:37;18.40;99.90
21031;DHT22;61072;47.808;7.636;2022-07-18T03:34:04;18.40;99.90
21031;DHT22;61072;47.808;7.636;2022-07-18T03:36:30;18.30;99.90
21031;DHT22;61072;47.808;7.636;2022-07-18T03:38:57;18.30;99.90
21031;DHT22;61072;47.808;7.636;2022-07-18T03:41:24;18.20;99.90
21031;DHT22;61072;47.808;7.636;2022-07-18T03:43:51;18.20;99.90
21031;DHT22;61072;47.808;7.636;2022-07-18T03:46:18;18.20;99.90
21031;DHT22;61072;47.808;7.636;2022-07-18T03:48:45;18.20;99.90
21031;DHT22;61072;47.808;7.636;2022-07-18T03:51:12;18.20;99.90
21031;DHT22;61072;47.808;7.636;2022-07-18T03:53:39;18.20;99.90
21031;DHT22;61072;47.808;7.636;2022-07-18T03:56:06;18.10;99.90
21031;DHT22;61072;47.808;7.636;2022-07-18T03:58:33;18.20;99.90
21031;DHT22;61072;47.808;7.636;2022-07-18T04:00:59;18.20;99.90
21031;DHT22;61072;47.808;7.636;2022-07-18T04:03:26;18.20;99.90
21031;DHT22;61072;47.808;7.636;2022-07-18T04:05:53;18.30;99.90
21031;DHT22;61072;47.808;7.636;2022-07-18T04:08:20;18.30;99.90
21031;DHT22;61072;47.808;7.636;2022-07-18T04:10:47;18.40;99.90
21031;DHT22;61072;47.808;7.636;2022-07-18T04:13:13;18.40;99.90
21031;DHT22;61072;47.808;7.636;2022-07-18T04:15:40;18.50;99.90
21031;DHT22;61072;47.808;7.636;2022-07-18T04:18:08;18.60;99.90
21031;DHT22;61072;47.808;7.636;2022-07-18T04:20:36;18.60;99.90
21031;DHT22;61072;47.808;7.636;2022-07-18T04:23:05;18.60;99.90
21031;DHT22;61072;47.808;7.636;2022-07-18T04:25:38;18.70;99.90
21031;DHT22;61072;47.808;7.636;2022-07-18T04:28:06;18.70;99.90
21031;DHT22;61072;47.808;7.636;2022-07-18T04:30:33;18.70;99.90
21031;DHT22;61072;47.808;7.636;2022-07-18T04:33:03;18.70;99.90
21031;DHT22;61072;47.808;7.636;2022-07-18T04:35:30;18.70;99.90
21031;DHT22;61072;47.808;7.636;2022-07-18T04:37:58;18.60;99.90
21031;DHT22;61072;47.808;7.636;2022-07-18T04:40:24;18.60;99.90
21031;DHT22;61072;47.808;7.636;2022-07-18T04:42:51;18.60;99.90
21031;DHT22;61072;47.808;7.636;2022-07-18T04:45:18;18.70;99.90
21031;DHT22;61072;47.808;7.636;2022-07-18T04:47:49;18.70;99.90
21031;DHT22;61072;47.808;7.636;2022-07-18T04:50:16;18.70;99.90
21031;DHT22;61072;47.808;7.636;2022-07-18T04:52:45;18.70;99.90
21031;DHT22;61072;47.808;7.636;2022-07-18T04:55:13;18.80;99.90
21031;DHT22;61072;47.808;7.636;2022-07-18T04:57:40;18.90;99.90
21031;DHT22;61072;47.808;7.636;2022-07-18T05:00:13;19.00;99.90
21031;DHT22;61072;47.808;7.636;2022-07-18T05:02:41;19.10;99.90
21031;DHT22;61072;47.808;7.636;2022-07-18T05:05:09;19.20;99.90
21031;DHT22;61072;47.808;7.636;2022-07-18T05:07:38;19.20;99.90
21031;DHT22;61072;47.808;7.636;2022-07-18T05:10:07;19.40;99.90
21031;DHT22;61072;47.808;7.636;2022-07-18T05:12:38;19.50;99.90
21031;DHT22;61072;47.808;7.636;2022-07-18T05:15:07;19.60;99.90
21031;DHT22;61072;47.808;7.636;2022-07-18T05:17:34;19.70;99.90
21031;DHT22;61072;47.808;7.636;2022-07-18T05:20:02;19.80;99.90
21031;DHT22;61072;47.808;7.636;2022-07-18T05:22:30;19.90;99.90
21031;DHT22;61072;47.808;7.636;2022-07-18T05:24:58;20.00;99.90
21031;DHT22;61072;47.808;7.636;2022-07-18T05:27:25;20.00;99.90
21031;DHT22;61072;47.808;7.636;2022-07-18T05:29:51;20.10;99.90
21031;DHT22;61072;47.808;7.636;2022-07-18T05:32:18;20.10;99.90
21031;DHT22;61072;47.808;7.636;2022-07-18T05:34:46;20.20;99.90
21031;DHT22;61072;47.808;7.636;2022-07-18T05:37:13;20.30;99.90
21031;DHT22;61072;47.808;7.636;2022-07-18T05:39:40;20.40;99.90
21031;DHT22;61072;47.808;7.636;2022-07-18T05:42:06;20.50;99.90
21031;DHT22;61072;47.808;7.636;2022-07-18T05:44:33;20.50;99.90
21031;DHT22;61072;47.808;7.636;2022-07-18T05:47:00;20.60;99.90
21031;DHT22;61072;47.808;7.636;2022-07-18T05:49:27;20.60;99.90
21031;DHT22;61072;47.808;7.636;2022-07-18T05:51:53;20.60;99.90
21031;DHT22;61072;47.808;7.636;2022-07-18T05:54:20;20.70;99.90
21031;DHT22;61072;47.808;7.636;2022-07-18T05:56:49;20.70;99.90
21031;DHT22;61072;47.808;7.636;2022-07-18T05:59:16;20.70;99.90
21031;DHT22;61072;47.808;7.636;2022-07-18T06:01:44;20.80;99.90
21031;DHT22;61072;47.808;7.636;2022-07-18T06:04:10;20.80;99.90
21031;DHT22;61072;47.808;7.636;2022-07-18T06:06:37;20.80;99.90
21031;DHT22;61072;47.808;7.636;2022-07-18T06:09:05;20.80;99.90
21031;DHT22;61072;47.808;7.636;2022-07-18T06:11:32;20.90;99.90
21031;DHT22;61072;47.808;7.636;2022-07-18T06:13:59;20.90;99.90
21031;DHT22;61072;47.808;7.636;2022-07-18T06:16:29;20.90;99.90
21031;DHT22;61072;47.808;7.636;2022-07-18T06:18:57;20.90;99.90
21031;DHT22;61072;47.808;7.636;2022-07-18T06:21:23;20.90;99.90
21031;DHT22;61072;47.808;7.636;2022-07-18T06:23:50;21.00;99.90
21031;DHT22;61072;47.808;7.636;2022-07-18T06:26:17;21.00;99.90
21031;DHT22;61072;47.808;7.636;2022-07-18T06:28:44;21.00;99.90
21031;DHT22;61072;47.808;7.636;2022-07-18T06:31:13;21.00;99.90
21031;DHT22;61072;47.808;7.636;2022-07-18T06:33:43;21.10;99.90
21031;DHT22;61072;47.808;7.636;2022-07-18T06:36:10;21.10;99.90
21031;DHT22;61072;47.808;7.636;2022-07-18T06:38:40;21.10;99.90
21031;DHT22;61072;47.808;7.636;2022-07-18T06:41:07;21.10;99.90
21031;DHT22;61072;47.808;7.636;2022-07-18T06:43:37;21.20;99.90
21031;DHT22;61072;47.808;7.636;2022-07-18T06:46:04;21.30;99.90
21031;DHT22;61072;47.808;7.636;2022-07-18T06:48:31;21.30;99.90
21031;DHT22;61072;47.808;7.636;2022-07-18T06:51:01;21.30;99.90
21031;DHT22;61072;47.808;7.636;2022-07-18T06:53:28;21.30;99.90
21031;DHT22;61072;47.808;7.636;2022-07-18T06:55:55;21.40;99.90
21031;DHT22;61072;47.808;7.636;2022-07-18T06:58:22;21.40;99.90
21031;DHT22;61072;47.808;7.636;2022-07-18T07:00:50;21.50;99.90
21031;DHT22;61072;47.808;7.636;2022-07-18T07:03:17;21.50;99.90
21031;DHT22;61072;47.808;7.636;2022-07-18T07:05:44;21.50;99.90
21031;DHT22;61072;47.808;7.636;2022-07-18T07:08:11;21.60;99.90
21031;DHT22;61072;47.808;7.636;2022-07-18T07:10:39;21.60;99.90
21031;DHT22;61072;47.808;7.636;2022-07-18T07:13:06;21.60;99.90
21031;DHT22;61072;47.808;7.636;2022-07-18T07:15:33;21.70;99.90
21031;DHT22;61072;47.808;7.636;2022-07-18T07:18:00;21.70;99.90
21031;DHT22;61072;47.808;7.636;2022-07-18T07:20:27;21.70;99.90
21031;DHT22;61072;47.808;7.636;2022-07-18T07:22:56;21.80;99.90
21031;DHT22;61072;47.808;7.636;2022-07-18T07:25:25;21.90;99.90
21031;DHT22;61072;47.808;7.636;2022-07-18T07:27:53;21.90;99.90
21031;DHT22;61072;47.808;7.636;2022-07-18T07:30:20;21.90;99.90
21031;DHT22;61072;47.808;7.636;2022-07-18T07:32:47;22.00;99.90
21031;DHT22;61072;47.808;7.636;2022-07-18T07:35:16;22.10;99.90
21031;DHT22;61072;47.808;7.636;2022-07-18T07:37:56;22.10;99.90
21031;DHT22;61072;47.808;7.636;2022-07-18T07:40:24;22.10;99.90
21031;DHT22;61072;47.808;7.636;2022-07-18T07:42:51;22.20;99.90
21031;DHT22;61072;47.808;7.636;2022-07-18T07:45:19;22.20;99.90
21031;DHT22;61072;47.808;7.636;2022-07-18T07:47:46;22.30;99.90
21031;DHT22;61072;47.808;7.636;2022-07-18T07:50:12;22.30;99.90
21031;DHT22;61072;47.808;7.636;2022-07-18T07:52:39;22.40;99.90
21031;DHT22;61072;47.808;7.636;2022-07-18T07:55:06;22.40;99.90
21031;DHT22;61072;47.808;7.636;2022-07-18T07:57:33;22.40;99.90
21031;DHT22;61072;47.808;7.636;2022-07-18T08:00:06;22.50;99.90
21031;DHT22;61072;47.808;7.636;2022-07-18T08:02:35;22.50;99.90
21031;DHT22;61072;47.808;7.636;2022-07-18T08:05:02;22.60;99.90
21031;DHT22;61072;47.808;7.636;2022-07-18T08:07:30;22.60;99.90
21031;DHT22;61072;47.808;7.636;2022-07-18T08:09:56;22.80;99.90
21031;DHT22;61072;47.808;7.636;2022-07-18T08:12:23;22.90;99.90
21031;DHT22;61072;47.808;7.636;2022-07-18T08:14:50;22.90;99.90
21031;DHT22;61072;47.808;7.636;2022-07-18T08:17:18;23.00;99.90
21031;DHT22;61072;47.808;7.636;2022-07-18T08:19:45;23.00;99.90
21031;DHT22;61072;47.808;7.636;2022-07-18T08:22:11;23.10;99.90
21031;DHT22;61072;47.808;7.636;2022-07-18T08:24:38;23.10;99.90
21031;DHT22;61072;47.808;7.636;2022-07-18T08:27:05;23.10;99.90
21031;DHT22;61072;47.808;7.636;2022-07-18T08:29:32;23.10;99.90
21031;DHT22;61072;47.808;7.636;2022-07-18T08:32:19;23.20;99.90
21031;DHT22;61072;47.808;7.636;2022-07-18T08:34:46;23.20;99.90
21031;DHT22;61072;47.808;7.636;2022-07-18T08:37:13;23.30;99.90
21031;DHT22;61072;47.808;7.636;2022-07-18T08:39:40;23.30;99.90
21031;DHT22;61072;47.808;7.636;2022-07-18T08:42:07;23.40;99.90
21031;DHT22;61072;47.808;7.636;2022-07-18T08:44:36;23.40;99.90
21031;DHT22;61072;47.808;7.636;2022-07-18T08:47:05;23.50;99.90
21031;DHT22;61072;47.808;7.636;2022-07-18T08:49:33;23.50;99.90
21031;DHT22;61072;47.808;7.636;2022-07-18T08:52:02;23.60;99.90
21031;DHT22;61072;47.808;7.636;2022-07-18T08:54:29;23.70;99.90
21031;DHT22;61072;47.808;7.636;2022-07-18T08:56:56;23.70;99.90
21031;DHT22;61072;47.808;7.636;2022-07-18T08:59:23;23.80;99.90
21031;DHT22;61072;47.808;7.636;2022-07-18T09:01:49;23.80;99.90
21031;DHT22;61072;47.808;7.636;2022-07-18T09:04:35;23.90;99.90
21031;DHT22;61072;47.808;7.636;2022-07-18T09:07:03;23.90;99.90
21031;DHT22;61072;47.808;7.636;2022-07-18T09:09:34;24.00;99.90
21031;DHT22;61072;47.808;7.636;2022-07-18T09:12:06;24.10;99.90
21031;DHT22;61072;47.808;7.636;2022-07-18T09:14:36;24.10;99.90
21031;DHT22;61072;47.808;7.636;2022-07-18T09:17:06;24.20;99.90
21031;DHT22;61072;47.808;7.636;2022-07-18T09:19:33;24.20;99.90
21031;DHT22;61072;47.808;7.636;2022-07-18T09:22:17;24.30;99.90
21031;DHT22;61072;47.808;7.636;2022-07-18T09:27:37;24.30;99.90
21031;DHT22;61072;47.808;7.636;2022-07-18T09:30:13;24.40;99.90
21031;DHT22;61072;47.808;7.636;2022-07-18T09:32:48;24.40;99.90
21031;DHT22;61072;47.808;7.636;2022-07-18T09:35:20;24.60;99.90
21031;DHT22;61072;47.808;7.636;2022-07-18T09:40:51;24.80;99.90
21031;DHT22;61072;47.808;7.636;2022-07-18T09:43:21;24.90;99.90
21031;DHT22;61072;47.808;7.636;2022-07-18T09:45:51;25.10;99.90
21031;DHT22;61072;47.808;7.636;2022-07-18T09:48:25;25.10;99.90
21031;DHT22;61072;47.808;7.636;2022-07-18T09:50:58;25.30;99.90
21031;DHT22;61072;47.808;7.636;2022-07-18T09:53:32;25.40;99.90
21031;DHT22;61072;47.808;7.636;2022-07-18T09:56:01;25.40;99.90
21031;DHT22;61072;47.808;7.636;2022-07-18T09:58:31;25.40;99.90
21031;DHT22;61072;47.808;7.636;2022-07-18T10:01:00;25.40;99.90
21031;DHT22;61072;47.808;7.636;2022-07-18T10:03:28;25.50;99.90
21031;DHT22;61072;47.808;7.636;2022-07-18T10:05:58;25.50;99.90
21031;DHT22;61072;47.808;7.636;2022-07-18T10:08:27;25.50;99.90
21031;DHT22;61072;47.808;7.636;2022-07-18T10:10:55;25.50;99.90
21031;DHT22;61072;47.808;7.636;2022-07-18T10:13:23;25.50;99.90
21031;DHT22;61072;47.808;7.636;2022-07-18T10:15:50;25.50;99.90
21031;DHT22;61072;47.808;7.636;2022-07-18T10:18:22;25.60;99.90
21031;DHT22;61072;47.808;7.636;2022-07-18T10:21:04;25.70;99.90
21031;DHT22;61072;47.808;7.636;2022-07-18T10:23:39;25.90;99.90
21031;DHT22;61072;47.808;7.636;2022-07-18T10:26:17;26.00;99.90
21031;DHT22;61072;47.808;7.636;2022-07-18T10:31:30;26.20;99.90
21031;DHT22;61072;47.808;7.636;2022-07-18T10:39:19;26.20;99.90
21031;DHT22;61072;47.808;7.636;2022-07-18T10:47:11;26.40;99.90
21031;DHT22;61072;47.808;7.636;2022-07-18T10:57:33;26.60;99.90
21031;DHT22;61072;47.808;7.636;2022-07-18T11:00:13;26.70;99.90
21031;DHT22;61072;47.808;7.636;2022-07-18T11:02:45;26.90;99.90
21031;DHT22;61072;47.808;7.636;2022-07-18T11:16:01;27.10;99.90
21031;DHT22;61072;47.808;7.636;2022-07-18T11:19:19;27.20;98.90
21031;DHT22;61072;47.808;7.636;2022-07-18T11:21:32;27.10;99.70
21031;DHT22;61072;47.808;7.636;2022-07-18T11:24:07;27.20;99.90
21031;DHT22;61072;47.808;7.636;2022-07-18T11:26:42;27.30;99.60
21031;DHT22;61072;47.808;7.636;2022-07-18T11:29:13;27.40;98.30
21031;DHT22;61072;47.808;7.636;2022-07-18T11:31:49;27.40;98.00
21031;DHT22;61072;47.808;7.636;2022-07-18T11:34:16;27.50;97.90
21031;DHT22;61072;47.808;7.636;2022-07-18T11:36:46;27.60;97.40
21031;DHT22;61072;47.808;7.636;2022-07-18T11:39:14;27.60;98.00
21031;DHT22;61072;47.808;7.636;2022-07-18T11:41:42;27.60;98.50
21031;DHT22;61072;47.808;7.636;2022-07-18T11:44:19;27.60;99.20
21031;DHT22;61072;47.808;7.636;2022-07-18T11:47:08;27.60;98.00
21031;DHT22;61072;47.808;7.636;2022-07-18T11:49:36;27.70;98.40
21031;DHT22;61072;47.808;7.636;2022-07-18T11:52:04;28.00;97.10
21031;DHT22;61072;47.808;7.636;2022-07-18T11:54:31;28.00;97.50
21031;DHT22;61072;47.808;7.636;2022-07-18T11:56:59;28.20;97.50
21031;DHT22;61072;47.808;7.636;2022-07-18T11:59:41;28.40;97.40
21031;DHT22;61072;47.808;7.636;2022-07-18T12:02:08;28.30;97.70
21031;DHT22;61072;47.808;7.636;2022-07-18T12:04:36;28.20;97.40
21031;DHT22;61072;47.808;7.636;2022-07-18T12:09:39;28.40;97.30
21031;DHT22;61072;47.808;7.636;2022-07-18T12:12:14;28.30;97.00
21031;DHT22;61072;47.808;7.636;2022-07-18T12:15:00;28.40;96.50
21031;DHT22;61072;47.808;7.636;2022-07-18T12:17:29;28.30;96.90
21031;DHT22;61072;47.808;7.636;2022-07-18T12:20:17;28.40;97.20
21031;DHT22;61072;47.808;7.636;2022-07-18T12:23:03;28.40;97.40
21031;DHT22;61072;47.808;7.636;2022-07-18T12:25:55;28.60;96.80
21031;DHT22;61072;47.808;7.636;2022-07-18T12:28:25;28.70;96.40
21031;DHT22;61072;47.808;7.636;2022-07-18T12:30:52;28.60;97.00
21031;DHT22;61072;47.808;7.636;2022-07-18T12:33:26;28.60;96.80
21031;DHT22;61072;47.808;7.636;2022-07-18T12:35:58;28.70;97.40
21031;DHT22;61072;47.808;7.636;2022-07-18T12:38:25;28.70;97.00
21031;DHT22;61072;47.808;7.636;2022-07-18T12:46:01;28.80;97.00
21031;DHT22;61072;47.808;7.636;2022-07-18T12:48:29;28.80;97.20
21031;DHT22;61072;47.808;7.636;2022-07-18T12:51:04;28.90;96.40
21031;DHT22;61072;47.808;7.636;2022-07-18T12:53:34;29.00;96.70
21031;DHT22;61072;47.808;7.636;2022-07-18T12:56:02;29.00;96.70
21031;DHT22;61072;47.808;7.636;2022-07-18T12:58:29;29.00;97.10
21031;DHT22;61072;47.808;7.636;2022-07-18T13:00:56;29.00;96.40
21031;DHT22;61072;47.808;7.636;2022-07-18T13:03:32;29.00;96.30
21031;DHT22;61072;47.808;7.636;2022-07-18T13:05:59;29.10;97.40
21031;DHT22;61072;47.808;7.636;2022-07-18T13:08:25;29.10;96.60
21031;DHT22;61072;47.808;7.636;2022-07-18T13:10:54;29.20;97.20
21031;DHT22;61072;47.808;7.636;2022-07-18T13:13:21;29.20;96.30
21031;DHT22;61072;47.808;7.636;2022-07-18T13:15:48;29.20;96.90
21031;DHT22;61072;47.808;7.636;2022-07-18T13:18:14;29.30;96.70
21031;DHT22;61072;47.808;7.636;2022-07-18T13:20:41;29.40;96.30
21031;DHT22;61072;47.808;7.636;2022-07-18T13:23:08;29.40;96.30
21031;DHT22;61072;47.808;7.636;2022-07-18T13:25:36;29.40;96.80
21031;DHT22;61072;47.808;7.636;2022-07-18T13:28:03;29.40;97.30
21031;DHT22;61072;47.808;7.636;2022-07-18T13:30:30;29.40;96.30
21031;DHT22;61072;47.808;7.636;2022-07-18T13:32:57;29.40;96.50
21031;DHT22;61072;47.808;7.636;2022-07-18T13:35:24;29.40;96.30
21031;DHT22;61072;47.808;7.636;2022-07-18T13:37:51;29.50;96.80
21031;DHT22;61072;47.808;7.636;2022-07-18T13:40:18;29.50;96.90
21031;DHT22;61072;47.808;7.636;2022-07-18T13:42:51;29.60;96.80
21031;DHT22;61072;47.808;7.636;2022-07-18T13:45:18;29.60;96.40
21031;DHT22;61072;47.808;7.636;2022-07-18T13:47:45;29.60;96.60
21031;DHT22;61072;47.808;7.636;2022-07-18T13:50:11;29.70;96.90
21031;DHT22;61072;47.808;7.636;2022-07-18T13:52:38;29.70;96.30
21031;DHT22;61072;47.808;7.636;2022-07-18T13:55:05;29.70;96.60
21031;DHT22;61072;47.808;7.636;2022-07-18T13:57:32;29.70;96.00
21031;DHT22;61072;47.808;7.636;2022-07-18T13:59:59;29.80;96.30
21031;DHT22;61072;47.808;7.636;2022-07-18T14:02:26;29.80;96.30
21031;DHT22;61072;47.808;7.636;2022-07-18T14:04:54;29.80;96.10
21031;DHT22;61072;47.808;7.636;2022-07-18T14:07:41;29.80;96.20
21031;DHT22;61072;47.808;7.636;2022-07-18T14:10:09;29.90;96.40
21031;DHT22;61072;47.808;7.636;2022-07-18T14:12:36;29.90;96.10
21031;DHT22;61072;47.808;7.636;2022-07-18T14:15:03;29.90;96.30
21031;DHT22;61072;47.808;7.636;2022-07-18T14:17:30;29.90;95.90
21031;DHT22;61072;47.808;7.636;2022-07-18T14:19:59;29.90;96.40
21031;DHT22;61072;47.808;7.636;2022-07-18T14:22:26;29.90;96.50
21031;DHT22;61072;47.808;7.636;2022-07-18T14:24:52;29.90;96.10
21031;DHT22;61072;47.808;7.636;2022-07-18T14:27:19;30.00;96.10
21031;DHT22;61072;47.808;7.636;2022-07-18T14:29:50;30.10;95.70
21031;DHT22;61072;47.808;7.636;2022-07-18T14:32:17;30.50;95.40
21031;DHT22;61072;47.808;7.636;2022-07-18T14:34:44;30.40;94.70
21031;DHT22;61072;47.808;7.636;2022-07-18T14:37:11;30.30;95.40
21031;DHT22;61072;47.808;7.636;2022-07-18T14:39:37;30.30;95.00
21031;DHT22;61072;47.808;7.636;2022-07-18T14:42:04;30.30;95.20
21031;DHT22;61072;47.808;7.636;2022-07-18T14:44:31;30.30;95.00
21031;DHT22;61072;47.808;7.636;2022-07-18T14:46:58;30.30;94.90
21031;DHT22;61072;47.808;7.636;2022-07-18T14:49:25;30.40;94.80
21031;DHT22;61072;47.808;7.636;2022-07-18T14:51:51;30.40;94.80
21031;DHT22;61072;47.808;7.636;2022-07-18T14:54:25;30.40;94.90
21031;DHT22;61072;47.808;7.636;2022-07-18T14:56:52;30.60;94.50
21031;DHT22;61072;47.808;7.636;2022-07-18T14:59:19;30.50;94.80
21031;DHT22;61072;47.808;7.636;2022-07-18T15:01:47;30.70;94.00
21031;DHT22;61072;47.808;7.636;2022-07-18T15:04:14;30.70;94.70
21031;DHT22;61072;47.808;7.636;2022-07-18T15:06:45;30.60;94.70
21031;DHT22;61072;47.808;7.636;2022-07-18T15:09:12;30.60;94.60
21031;DHT22;61072;47.808;7.636;2022-07-18T15:11:40;30.70;94.80
21031;DHT22;61072;47.808;7.636;2022-07-18T15:14:06;30.80;95.00
21031;DHT22;61072;47.808;7.636;2022-07-18T15:16:34;30.70;95.10
21031;DHT22;61072;47.808;7.636;2022-07-18T15:19:01;30.70;95.10
21031;DHT22;61072;47.808;7.636;2022-07-18T15:21:28;30.70;94.80
21031;DHT22;61072;47.808;7.636;2022-07-18T15:23:55;30.80;94.90
21031;DHT22;61072;47.808;7.636;2022-07-18T15:26:22;30.80;95.00
21031;DHT22;61072;47.808;7.636;2022-07-18T15:28:48;30.80;94.60
21031;DHT22;61072;47.808;7.636;2022-07-18T15:31:15;30.80;94.80
21031;DHT22;61072;47.808;7.636;2022-07-18T15:33:42;30.70;94.60
21031;DHT22;61072;47.808;7.636;2022-07-18T15:36:10;30.70;95.10
21031;DHT22;61072;47.808;7.636;2022-07-18T15:38:37;30.70;95.20
21031;DHT22;61072;47.808;7.636;2022-07-18T15:41:07;30.60;94.60
21031;DHT22;61072;47.808;7.636;2022-07-18T15:43:35;30.60;94.70
21031;DHT22;61072;47.808;7.636;2022-07-18T15:46:02;30.70;94.70
21031;DHT22;61072;47.808;7.636;2022-07-18T15:48:29;30.70;94.80
21031;DHT22;61072;47.808;7.636;2022-07-18T15:50:56;30.80;95.30
21031;DHT22;61072;47.808;7.636;2022-07-18T15:53:23;30.80;95.10
21031;DHT22;61072;47.808;7.636;2022-07-18T15:55:50;30.80;94.50
21031;DHT22;61072;47.808;7.636;2022-07-18T15:58:17;30.80;94.60
21031;DHT22;61072;47.808;7.636;2022-07-18T16:00:44;30.80;94.70
21031;DHT22;61072;47.808;7.636;2022-07-18T16:03:10;30.80;94.90
21031;DHT22;61072;47.808;7.636;2022-07-18T16:05:37;30.80;94.90
21031;DHT22;61072;47.808;7.636;2022-07-18T16:08:04;30.80;94.80
21031;DHT22;61072;47.808;7.636;2022-07-18T16:10:31;30.80;94.20
21031;DHT22;61072;47.808;7.636;2022-07-18T16:12:57;30.80;94.40
21031;DHT22;61072;47.808;7.636;2022-07-18T16:15:24;30.90;94.60
21031;DHT22;61072;47.808;7.636;2022-07-18T16:17:51;30.90;94.60
21031;DHT22;61072;47.808;7.636;2022-07-18T16:20:25;31.00;94.70
21031;DHT22;61072;47.808;7.636;2022-07-18T16:22:52;31.00;94.30